Time;durP1;ratioP1;P1;durP2;ratioP2;P2;SDS_P1;SDS_P2;PMS_P1;PMS_P2;Temp;Humidity;BMP_temperature;BMP_pressure;BME280_temperature;BME280_humidity;BME280_pressure;Samples;Min_cycle;Max_cycle;Signal;HPM_P1;HPM_P2
2023/05/15 00:01:05;;;;;;;6.50;5.90;;;16.10;99.90;;;;;;5023335;28;20188;-66
2023/05/15 00:03:30;;;;;;;7.40;5.47;;;16.00;99.90;;;;;;5022892;28;20212;-66
2023/05/15 00:05:56;;;;;;;6.37;5.80;;;16.00;99.90;;;;;;5024088;28;20184;-66
2023/05/15 00:08:22;;;;;;;7.10;5.57;;;16.00;99.90;;;;;;5025075;28;20204;-66
2023/05/15 00:10:47;;;;;;;7.37;6.30;;;16.00;99.90;;;;;;5021071;28;20485;-66
2023/05/15 00:13:13;;;;;;;7.20;6.50;;;16.00;99.90;;;;;;5026161;28;20712;-66
2023/05/15 00:15:38;;;;;;;7.20;6.37;;;15.90;99.90;;;;;;5021994;28;20188;-66
2023/05/15 00:18:04;;;;;;;8.10;6.37;;;15.90;99.90;;;;;;5025678;28;20212;-66
2023/05/15 00:20:30;;;;;;;7.13;6.43;;;15.90;99.90;;;;;;5020763;28;20208;-66
2023/05/15 00:22:57;;;;;;;8.23;6.17;;;15.80;99.90;;;;;;5026117;28;20181;-66
2023/05/15 00:25:22;;;;;;;6.87;5.83;;;15.80;99.90;;;;;;5030883;28;20666;-66
2023/05/15 00:27:48;;;;;;;6.43;5.83;;;15.80;99.90;;;;;;5029171;28;20595;-66
2023/05/15 00:30:14;;;;;;;6.40;5.80;;;15.80;99.90;;;;;;5022381;28;20223;-66
2023/05/15 00:32:40;;;;;;;7.13;6.43;;;15.70;99.90;;;;;;5023824;28;20180;-66
2023/05/15 00:35:06;;;;;;;7.13;6.40;;;15.70;99.90;;;;;;5033132;28;20424;-66
2023/05/15 00:37:31;;;;;;;7.23;6.53;;;15.50;99.90;;;;;;5022914;28;20189;-66
2023/05/15 00:39:57;;;;;;;7.20;6.50;;;15.40;99.90;;;;;;5022426;28;20812;-66
2023/05/15 00:42:23;;;;;;;7.03;6.33;;;15.40;99.90;;;;;;5018881;28;20198;-66
2023/05/15 00:44:51;;;;;;;6.90;6.30;;;15.40;99.90;;;;;;5021601;28;20653;-66
2023/05/15 00:47:19;;;;;;;6.50;5.90;;;15.30;99.90;;;;;;5022233;28;20441;-66
2023/05/15 00:49:45;;;;;;;7.17;6.47;;;15.30;99.90;;;;;;5030301;28;20457;-66
2023/05/15 00:52:11;;;;;;;7.67;6.40;;;15.40;99.90;;;;;;5025881;28;20477;-66
2023/05/15 00:54:37;;;;;;;6.30;5.70;;;15.50;99.90;;;;;;5026830;28;20440;-66
2023/05/15 00:57:05;;;;;;;7.70;6.90;;;15.40;99.90;;;;;;5021327;28;20529;-66
2023/05/15 00:59:32;;;;;;;7.87;6.20;;;15.40;99.90;;;;;;5024940;28;20212;-66
2023/05/15 01:01:57;;;;;;;7.63;6.67;;;15.40;99.90;;;;;;5026028;28;20979;-66
2023/05/15 01:04:23;;;;;;;6.70;6.10;;;15.30;99.90;;;;;;5026391;28;20466;-66
2023/05/15 01:06:52;;;;;;;6.90;6.20;;;15.40;99.90;;;;;;5025762;28;20792;-66
2023/05/15 01:09:19;;;;;;;7.33;6.47;;;15.50;99.90;;;;;;5023019;28;20436;-66
2023/05/15 01:11:49;;;;;;;9.00;6.90;;;15.50;99.90;;;;;;5021273;28;20511;-66
2023/05/15 01:14:14;;;;;;;7.73;6.50;;;15.40;99.90;;;;;;5019996;28;20439;-66
2023/05/15 01:16:40;;;;;;;7.40;6.67;;;15.40;99.90;;;;;;5027367;28;20429;-66
2023/05/15 01:19:06;;;;;;;10.40;6.90;;;15.40;99.90;;;;;;5017714;28;20281;-65
2023/05/15 01:21:34;;;;;;;7.10;6.40;;;15.50;99.90;;;;;;5016061;28;20307;-66
2023/05/15 01:24:15;;;;;;;7.63;6.83;;;15.50;99.90;;;;;;5023007;28;20201;-65
2023/05/15 01:26:40;;;;;;;7.87;6.30;;;15.50;99.90;;;;;;5012276;28;21129;-66
2023/05/15 01:29:20;;;;;;;8.10;7.30;;;15.40;99.90;;;;;;5016710;28;20538;-65
2023/05/15 01:31:52;;;;;;;6.80;6.20;;;15.30;99.90;;;;;;5029525;28;20556;-66
2023/05/15 01:34:21;;;;;;;8.27;7.33;;;15.40;99.90;;;;;;5025428;28;20506;-66
2023/05/15 01:36:55;;;;;;;6.97;6.20;;;15.40;99.90;;;;;;5019292;28;20480;-66
2023/05/15 01:39:25;;;;;;;10.20;6.90;;;15.40;99.90;;;;;;5019763;28;20481;-66
2023/05/15 01:42:05;;;;;;;6.73;6.13;;;15.40;99.90;;;;;;5017852;28;20435;-66
2023/05/15 01:44:35;;;;;;;8.77;7.00;;;15.40;99.90;;;;;;5028280;28;20508;-66
2023/05/15 01:47:09;;;;;;;7.60;6.80;;;15.20;99.90;;;;;;5020999;28;20443;-66
2023/05/15 01:49:35;;;;;;;7.33;6.73;;;15.30;99.90;;;;;;5015239;28;20448;-66
2023/05/15 01:52:15;;;;;;;6.93;6.33;;;15.30;99.90;;;;;;5013577;28;20436;-66
2023/05/15 01:54:41;;;;;;;6.50;5.90;;;15.20;99.90;;;;;;5021557;28;20533;-66
2023/05/15 01:57:08;;;;;;;7.40;6.70;;;15.20;99.90;;;;;;5019487;28;20467;-66
2023/05/15 01:59:35;;;;;;;6.80;6.20;;;15.30;99.90;;;;;;5015929;28;20877;-66
2023/05/15 02:02:06;;;;;;;6.63;5.93;;;15.30;99.90;;;;;;5018934;28;20501;-64
2023/05/15 02:04:33;;;;;;;7.87;7.17;;;15.30;99.90;;;;;;5022789;28;20548;-66
2023/05/15 02:07:03;;;;;;;7.80;6.30;;;15.30;99.90;;;;;;5030737;28;20430;-65
2023/05/15 02:09:30;;;;;;;7.33;6.63;;;15.30;99.90;;;;;;5020765;28;20470;-65
2023/05/15 02:11:56;;;;;;;8.53;6.80;;;15.30;99.90;;;;;;5022049;28;20431;-65
2023/05/15 02:14:23;;;;;;;7.57;6.77;;;15.30;99.90;;;;;;5019427;28;20447;-66
2023/05/15 02:16:49;;;;;;;6.90;6.27;;;15.30;99.90;;;;;;5023417;28;20956;-65
2023/05/15 02:19:15;;;;;;;11.37;6.30;;;15.30;99.90;;;;;;5025278;28;20494;-65
2023/05/15 02:21:41;;;;;;;7.27;6.27;;;15.20;99.90;;;;;;5017067;28;20435;-65
2023/05/15 02:24:06;;;;;;;7.00;6.30;;;15.10;99.90;;;;;;5024381;28;21156;-65
2023/05/15 02:26:40;;;;;;;6.70;6.10;;;15.10;99.90;;;;;;5022793;28;20210;-65
2023/05/15 02:29:20;;;;;;;7.83;7.03;;;15.00;99.90;;;;;;5015101;28;20199;-65
2023/05/15 02:32:04;;;;;;;7.30;6.60;;;14.90;99.90;;;;;;5024176;28;20426;-65
2023/05/15 02:34:42;;;;;;;7.30;6.60;;;14.90;99.90;;;;;;5022647;28;20933;-65
2023/05/15 02:37:13;;;;;;;10.20;6.53;;;14.70;99.90;;;;;;5029381;28;20498;-65
2023/05/15 02:39:41;;;;;;;7.97;6.63;;;14.70;99.90;;;;;;5026999;28;20454;-65
2023/05/15 02:42:08;;;;;;;8.40;7.60;;;14.60;99.90;;;;;;5024237;28;20554;-65
2023/05/15 02:44:35;;;;;;;7.20;6.50;;;14.70;99.90;;;;;;5019247;28;20451;-65
2023/05/15 02:47:02;;;;;;;9.97;7.70;;;14.70;99.90;;;;;;5017311;28;20427;-65
2023/05/15 02:49:28;;;;;;;7.30;6.60;;;14.70;99.90;;;;;;5019512;28;20882;-65
2023/05/15 02:51:53;;;;;;;7.00;6.30;;;14.60;99.90;;;;;;5014708;28;20437;-65
2023/05/15 02:54:20;;;;;;;7.33;6.63;;;14.60;99.90;;;;;;5019766;28;20195;-65
2023/05/15 02:56:45;;;;;;;6.47;5.87;;;14.50;99.90;;;;;;5018059;28;20188;-65
2023/05/15 02:59:17;;;;;;;11.23;6.97;;;14.60;99.90;;;;;;5021901;28;20453;-66
2023/05/15 03:01:43;;;;;;;8.23;6.60;;;14.60;99.90;;;;;;5017430;28;20654;-66
2023/05/15 03:04:08;;;;;;;7.60;6.83;;;14.60;99.90;;;;;;5012312;28;20490;-66
2023/05/15 03:06:34;;;;;;;15.67;7.57;;;14.50;99.90;;;;;;5022379;28;20181;-66
2023/05/15 03:08:59;;;;;;;6.77;6.17;;;14.50;99.90;;;;;;5028501;28;20205;-66
2023/05/15 03:11:25;;;;;;;7.20;6.50;;;14.40;99.90;;;;;;5022863;28;20177;-66
2023/05/15 03:13:50;;;;;;;7.20;6.50;;;14.40;99.90;;;;;;5011548;28;20193;-66
2023/05/15 03:16:16;;;;;;;8.13;6.80;;;14.30;99.90;;;;;;5029802;28;20183;-66
2023/05/15 03:18:41;;;;;;;7.47;6.67;;;14.30;99.90;;;;;;5026956;28;20750;-66
2023/05/15 03:21:07;;;;;;;7.40;6.70;;;14.30;99.90;;;;;;5020806;28;20230;-66
2023/05/15 03:23:33;;;;;;;7.70;6.90;;;14.30;99.90;;;;;;5020840;28;20196;-66
2023/05/15 03:25:58;;;;;;;7.80;6.70;;;14.20;99.90;;;;;;5016311;28;20185;-66
2023/05/15 03:28:24;;;;;;;7.30;6.60;;;14.30;99.90;;;;;;5017682;28;20279;-66
2023/05/15 03:30:49;;;;;;;7.67;6.87;;;14.30;99.90;;;;;;5021062;28;20176;-66
2023/05/15 03:33:15;;;;;;;7.43;6.73;;;14.40;99.90;;;;;;5019188;28;20662;-66
2023/05/15 03:35:41;;;;;;;7.60;6.90;;;14.30;99.90;;;;;;5019653;28;20677;-66
2023/05/15 03:38:06;;;;;;;7.03;6.20;;;14.30;99.90;;;;;;5022646;28;20280;-66
2023/05/15 03:40:32;;;;;;;9.50;8.20;;;14.20;99.90;;;;;;5013742;28;20200;-66
2023/05/15 03:42:57;;;;;;;10.43;6.57;;;14.10;99.90;;;;;;5018789;28;20176;-66
2023/05/15 03:45:23;;;;;;;7.60;6.90;;;14.10;99.90;;;;;;5026617;28;20492;-66
2023/05/15 03:47:48;;;;;;;7.30;6.60;;;14.20;99.90;;;;;;5022649;28;20180;-66
2023/05/15 03:50:14;;;;;;;7.50;6.80;;;14.20;99.90;;;;;;5020901;28;20681;-66
2023/05/15 03:52:40;;;;;;;10.20;6.70;;;14.20;99.90;;;;;;5016131;28;20634;-66
2023/05/15 03:55:06;;;;;;;10.07;6.90;;;14.20;99.90;;;;;;5017302;28;20441;-66
2023/05/15 03:57:34;;;;;;;7.20;6.50;;;14.20;99.90;;;;;;5019277;28;20234;-66
2023/05/15 04:00:02;;;;;;;7.57;6.70;;;14.10;99.90;;;;;;5026007;28;20547;-66
2023/05/15 04:02:28;;;;;;;7.47;6.77;;;14.10;99.90;;;;;;5027975;28;20552;-66
2023/05/15 04:04:53;;;;;;;7.63;5.90;;;14.10;99.90;;;;;;5022251;28;20555;-66
2023/05/15 04:07:19;;;;;;;7.17;6.47;;;14.10;99.90;;;;;;5021615;28;20181;-66
2023/05/15 04:09:44;;;;;;;6.70;6.10;;;14.20;99.90;;;;;;5018335;28;20591;-66
2023/05/15 04:12:10;;;;;;;8.93;6.90;;;14.10;99.90;;;;;;5027077;28;20253;-66
2023/05/15 04:14:35;;;;;;;8.00;6.67;;;14.10;99.90;;;;;;5028560;28;20180;-66
2023/05/15 04:17:01;;;;;;;8.80;7.03;;;14.10;99.90;;;;;;5026892;28;20306;-66
2023/05/15 04:19:26;;;;;;;7.33;6.07;;;14.10;99.90;;;;;;5025307;28;20306;-66
2023/05/15 04:21:52;;;;;;;9.73;6.83;;;14.10;99.90;;;;;;5032040;28;20195;-66
2023/05/15 04:24:17;;;;;;;8.80;6.73;;;14.20;99.90;;;;;;5026159;28;20206;-66
2023/05/15 04:26:43;;;;;;;8.00;6.60;;;14.20;99.90;;;;;;5028036;28;20215;-66
2023/05/15 04:29:09;;;;;;;7.23;6.30;;;14.10;99.90;;;;;;5024459;28;20946;-66
2023/05/15 04:31:35;;;;;;;7.73;6.70;;;14.10;99.90;;;;;;5025010;28;20235;-66
2023/05/15 04:34:00;;;;;;;7.20;6.50;;;14.20;99.90;;;;;;5019914;28;20299;-66
2023/05/15 04:36:26;;;;;;;7.90;7.10;;;14.30;99.90;;;;;;5027998;28;20776;-66
2023/05/15 04:38:51;;;;;;;7.60;6.80;;;14.20;99.90;;;;;;5018778;28;20208;-66
2023/05/15 04:41:17;;;;;;;7.73;6.93;;;14.30;99.90;;;;;;5018190;28;20185;-66
2023/05/15 04:43:42;;;;;;;7.50;6.80;;;14.30;99.90;;;;;;5026441;28;21096;-66
2023/05/15 04:46:08;;;;;;;7.53;6.57;;;14.30;99.90;;;;;;5020025;28;20199;-66
2023/05/15 04:48:34;;;;;;;7.47;6.70;;;14.30;99.90;;;;;;5022191;28;20291;-66
2023/05/15 04:50:59;;;;;;;7.77;6.80;;;14.20;99.90;;;;;;5017280;28;20188;-66
2023/05/15 04:53:25;;;;;;;9.60;6.97;;;14.20;99.90;;;;;;5017068;28;20284;-66
2023/05/15 04:55:50;;;;;;;7.67;6.73;;;14.20;99.90;;;;;;5013381;28;20216;-67
2023/05/15 04:58:16;;;;;;;7.57;6.77;;;14.10;99.90;;;;;;5027154;28;20205;-66
2023/05/15 05:00:42;;;;;;;12.93;7.43;;;14.10;99.90;;;;;;5020559;28;20251;-66
2023/05/15 05:03:07;;;;;;;10.60;8.13;;;14.10;99.90;;;;;;5025175;28;20188;-66
2023/05/15 05:05:33;;;;;;;10.73;8.07;;;14.00;99.90;;;;;;5020891;28;20204;-66
2023/05/15 05:07:58;;;;;;;9.00;7.80;;;14.00;99.90;;;;;;5019029;28;20211;-66
2023/05/15 05:10:24;;;;;;;8.70;7.83;;;14.00;99.90;;;;;;5019176;28;20247;-66
2023/05/15 05:12:49;;;;;;;8.67;7.80;;;14.10;99.90;;;;;;5024491;28;20180;-66
2023/05/15 05:15:15;;;;;;;8.47;7.67;;;14.10;99.90;;;;;;5007842;28;20193;-66
2023/05/15 05:17:41;;;;;;;8.87;7.97;;;14.10;99.90;;;;;;5024307;28;20713;-66
2023/05/15 05:20:09;;;;;;;9.10;8.13;;;14.10;99.90;;;;;;5022113;28;20205;-66
2023/05/15 05:22:35;;;;;;;10.67;7.80;;;14.20;99.90;;;;;;5019669;28;20600;-66
2023/05/15 05:25:01;;;;;;;10.20;7.70;;;14.20;99.90;;;;;;5051003;28;20499;-66
2023/05/15 05:27:26;;;;;;;8.97;8.07;;;14.20;99.90;;;;;;5023902;28;20639;-66
2023/05/15 05:29:53;;;;;;;10.03;9.03;;;14.40;99.90;;;;;;5017179;28;20659;-66
2023/05/15 05:32:18;;;;;;;10.17;7.80;;;14.40;99.90;;;;;;5031107;28;20172;-66
2023/05/15 05:34:44;;;;;;;8.90;8.00;;;14.40;99.90;;;;;;5005625;28;20515;-66
2023/05/15 05:37:09;;;;;;;8.73;7.70;;;14.30;99.90;;;;;;5013116;28;20311;-66
2023/05/15 05:39:35;;;;;;;8.77;7.97;;;14.30;99.90;;;;;;5020671;28;20208;-66
2023/05/15 05:42:01;;;;;;;7.93;7.13;;;14.30;99.90;;;;;;5023570;28;20270;-66
2023/05/15 05:44:26;;;;;;;7.70;6.90;;;14.40;99.90;;;;;;5027548;28;20796;-66
2023/05/15 05:46:52;;;;;;;8.80;8.00;;;14.50;99.90;;;;;;5022689;28;20182;-64
2023/05/15 05:49:17;;;;;;;8.50;7.30;;;14.60;99.90;;;;;;5020707;28;20255;-64
2023/05/15 05:51:44;;;;;;;8.70;7.80;;;14.70;99.90;;;;;;5013979;28;20264;-64
2023/05/15 05:54:10;;;;;;;7.93;7.13;;;14.90;99.90;;;;;;5015084;28;20200;-64
2023/05/15 05:56:36;;;;;;;7.37;6.63;;;15.00;99.90;;;;;;5029755;28;20570;-66
2023/05/15 05:59:01;;;;;;;10.47;6.77;;;15.00;99.90;;;;;;5020799;28;20246;-65
2023/05/15 06:01:27;;;;;;;8.40;6.67;;;15.10;99.90;;;;;;5022326;28;20204;-65
2023/05/15 06:03:54;;;;;;;7.97;6.80;;;15.20;99.90;;;;;;5025453;28;20208;-65
2023/05/15 06:06:20;;;;;;;7.83;6.60;;;15.30;99.90;;;;;;5026688;28;20498;-65
2023/05/15 06:08:45;;;;;;;8.80;6.20;;;15.30;99.90;;;;;;5022568;28;20478;-66
2023/05/15 06:11:11;;;;;;;8.30;6.43;;;15.30;99.90;;;;;;5018555;28;20196;-66
2023/05/15 06:13:36;;;;;;;6.80;6.10;;;15.30;99.90;;;;;;5019691;28;20188;-66
2023/05/15 06:16:02;;;;;;;7.00;6.30;;;15.30;99.90;;;;;;5018910;28;20176;-66
2023/05/15 06:18:28;;;;;;;8.07;6.27;;;15.40;99.90;;;;;;5024031;28;20728;-66
2023/05/15 06:20:53;;;;;;;6.27;5.67;;;15.40;99.90;;;;;;5018546;28;20193;-66
2023/05/15 06:23:19;;;;;;;7.20;6.50;;;15.40;99.90;;;;;;5026398;28;20196;-66
2023/05/15 06:25:45;;;;;;;6.20;5.53;;;15.40;99.90;;;;;;5023981;28;20366;-67
2023/05/15 06:28:10;;;;;;;7.17;6.30;;;15.40;99.90;;;;;;5022425;28;20196;-66
2023/05/15 06:30:36;;;;;;;9.53;6.40;;;15.40;99.90;;;;;;5026901;28;20189;-66
2023/05/15 06:33:01;;;;;;;7.70;5.77;;;15.50;99.90;;;;;;5024187;28;20199;-66
2023/05/15 06:35:27;;;;;;;7.70;6.03;;;15.60;99.90;;;;;;5020246;28;20242;-66
2023/05/15 06:37:52;;;;;;;7.60;6.17;;;15.50;99.90;;;;;;5026763;28;20645;-66
2023/05/15 06:40:20;;;;;;;7.33;6.60;;;15.50;99.90;;;;;;5019674;28;20185;-66
2023/05/15 06:42:46;;;;;;;7.33;5.60;;;15.50;99.90;;;;;;5025576;28;20180;-65
2023/05/15 06:45:11;;;;;;;7.43;6.20;;;15.50;99.90;;;;;;5022339;28;20521;-65
2023/05/15 06:47:37;;;;;;;6.93;5.80;;;15.50;99.90;;;;;;5022577;28;20631;-65
2023/05/15 06:50:04;;;;;;;7.57;6.10;;;15.50;99.90;;;;;;5015714;28;20188;-65
2023/05/15 06:52:29;;;;;;;6.50;5.90;;;15.50;99.90;;;;;;5018446;28;20240;-66
2023/05/15 06:54:55;;;;;;;6.73;6.03;;;15.50;99.90;;;;;;5017589;28;20435;-66
2023/05/15 06:57:20;;;;;;;7.60;5.33;;;15.50;99.90;;;;;;5030200;28;20302;-66
2023/05/15 06:59:46;;;;;;;8.63;6.23;;;15.50;99.90;;;;;;5015808;28;20205;-67
2023/05/15 07:02:11;;;;;;;8.17;5.73;;;15.60;99.90;;;;;;5016889;28;20262;-67
2023/05/15 07:04:37;;;;;;;6.90;6.20;;;15.70;99.90;;;;;;5024871;28;20196;-66
2023/05/15 07:07:03;;;;;;;6.10;5.43;;;15.70;99.90;;;;;;5027329;28;20176;-67
2023/05/15 07:09:28;;;;;;;7.73;5.90;;;15.70;99.90;;;;;;5018581;28;20204;-66
2023/05/15 07:11:54;;;;;;;6.23;5.63;;;15.70;99.90;;;;;;5014066;28;20185;-66
2023/05/15 07:14:19;;;;;;;6.70;5.57;;;15.80;99.90;;;;;;5023692;28;20188;-66
2023/05/15 07:16:46;;;;;;;6.83;6.00;;;15.80;99.90;;;;;;5023005;28;20208;-66
2023/05/15 07:19:11;;;;;;;7.00;5.87;;;15.90;99.90;;;;;;5020170;28;20211;-67
2023/05/15 07:21:38;;;;;;;6.33;5.73;;;15.90;99.90;;;;;;5018161;28;20443;-66
2023/05/15 07:24:04;;;;;;;6.57;5.97;;;16.00;99.90;;;;;;5024522;28;20219;-66
2023/05/15 07:26:31;;;;;;;6.27;5.67;;;16.10;99.90;;;;;;5023491;28;20431;-66
2023/05/15 07:28:57;;;;;;;6.30;5.70;;;16.20;99.90;;;;;;5024107;28;20454;-66
2023/05/15 07:31:23;;;;;;;7.27;5.30;;;16.10;99.90;;;;;;5025317;28;20907;-66
2023/05/15 07:33:48;;;;;;;6.30;5.20;;;16.10;99.90;;;;;;5022982;28;20235;-65
2023/05/15 07:36:14;;;;;;;6.97;5.83;;;16.10;99.90;;;;;;5023501;28;20280;-66
2023/05/15 07:38:39;;;;;;;6.80;6.17;;;16.00;99.90;;;;;;5020670;28;20223;-66
2023/05/15 07:41:05;;;;;;;6.13;5.53;;;16.00;99.90;;;;;;5020576;28;20180;-66
2023/05/15 07:43:30;;;;;;;7.27;6.57;;;15.90;99.90;;;;;;5023536;28;20172;-66
2023/05/15 07:45:56;;;;;;;6.20;5.70;;;16.00;99.90;;;;;;5027704;28;20180;-67
2023/05/15 07:48:22;;;;;;;6.70;6.10;;;16.10;99.90;;;;;;5017061;28;20208;-67
2023/05/15 07:50:49;;;;;;;7.20;5.63;;;16.10;99.90;;;;;;5015799;28;20427;-67
2023/05/15 07:53:18;;;;;;;6.80;5.90;;;16.10;99.90;;;;;;5016046;28;20185;-67
2023/05/15 07:55:44;;;;;;;8.23;7.53;;;16.20;99.90;;;;;;5014757;28;20442;-67
2023/05/15 07:58:10;;;;;;;6.27;5.63;;;16.20;99.90;;;;;;5013450;28;20464;-67
2023/05/15 08:00:36;;;;;;;7.40;5.50;;;16.30;99.90;;;;;;5021118;28;20224;-67
2023/05/15 08:03:02;;;;;;;7.40;6.60;;;16.40;99.90;;;;;;5019524;28;20526;-67
2023/05/15 08:05:28;;;;;;;6.50;5.90;;;16.50;99.90;;;;;;5022137;28;20864;-67
2023/05/15 08:07:55;;;;;;;13.20;5.60;;;16.50;99.90;;;;;;5021239;28;20212;-67
2023/05/15 08:10:21;;;;;;;9.10;7.00;;;16.50;99.90;;;;;;5027582;28;20435;-66
2023/05/15 08:12:47;;;;;;;7.00;5.40;;;16.60;99.90;;;;;;5022590;28;20471;-67
2023/05/15 08:15:13;;;;;;;7.13;5.17;;;16.70;99.90;;;;;;5024915;28;20593;-66
2023/05/15 08:17:39;;;;;;;6.50;5.27;;;16.60;99.90;;;;;;5014664;28;20533;-66
2023/05/15 08:20:05;;;;;;;9.40;5.53;;;16.60;99.90;;;;;;5014689;28;20464;-66
2023/05/15 08:22:31;;;;;;;8.80;5.00;;;16.70;99.90;;;;;;5026480;28;20443;-67
2023/05/15 08:24:59;;;;;;;5.93;5.13;;;16.80;99.90;;;;;;5016816;28;20470;-67
2023/05/15 08:27:24;;;;;;;5.97;5.47;;;16.90;99.90;;;;;;5019417;28;20181;-67
2023/05/15 08:29:51;;;;;;;6.00;5.40;;;17.10;99.90;;;;;;5021999;28;20455;-67
2023/05/15 08:32:17;;;;;;;6.10;5.10;;;17.20;99.90;;;;;;5016459;28;20592;-67
2023/05/15 08:34:42;;;;;;;9.13;5.30;;;17.20;99.90;;;;;;5019569;28;20530;-67
2023/05/15 08:37:08;;;;;;;5.73;4.97;;;17.30;99.90;;;;;;5028234;28;20192;-67
2023/05/15 08:39:33;;;;;;;5.17;4.40;;;17.30;99.90;;;;;;5017686;28;20266;-67
2023/05/15 08:42:18;;;;;;;6.27;5.50;;;17.40;99.90;;;;;;5019101;28;20603;-68
2023/05/15 08:44:44;;;;;;;5.70;4.97;;;17.40;99.90;;;;;;5021617;28;20200;-68
2023/05/15 08:47:10;;;;;;;5.97;5.40;;;17.40;99.90;;;;;;5017874;28;21143;-68
2023/05/15 08:50:06;;;;;;;5.47;4.90;;;17.60;99.90;;;;;;5014989;28;20463;-68
2023/05/15 08:52:32;;;;;;;5.10;4.60;;;17.60;99.90;;;;;;5025501;28;20439;-68
2023/05/15 08:55:00;;;;;;;6.10;4.90;;;17.70;99.90;;;;;;5023184;28;20959;-67
2023/05/15 08:57:27;;;;;;;5.77;4.50;;;17.70;99.90;;;;;;5018299;28;20995;-68
2023/05/15 08:59:53;;;;;;;6.37;4.60;;;17.70;99.90;;;;;;5046722;28;20497;-68
2023/05/15 09:02:20;;;;;;;5.80;5.20;;;17.90;99.90;;;;;;5013091;28;20455;-68
2023/05/15 09:04:45;;;;;;;5.57;4.73;;;17.80;99.90;;;;;;5016098;28;20471;-67
2023/05/15 09:07:11;;;;;;;5.37;4.57;;;17.90;99.90;;;;;;5017028;28;20937;-67
2023/05/15 09:09:38;;;;;;;5.10;4.60;;;18.00;99.90;;;;;;5018802;28;20591;-66
2023/05/15 09:12:07;;;;;;;4.50;4.10;;;17.90;99.90;;;;;;5021360;28;20568;-66
2023/05/15 09:14:32;;;;;;;6.00;5.40;;;17.90;99.90;;;;;;5009523;28;20442;-66
2023/05/15 09:16:58;;;;;;;5.10;4.60;;;18.10;99.90;;;;;;5046404;28;20934;-66
2023/05/15 09:19:23;;;;;;;6.63;4.60;;;18.20;99.90;;;;;;5020669;28;20278;-66
2023/05/15 09:21:49;;;;;;;6.60;4.87;;;18.30;99.90;;;;;;5016075;28;20243;-67
2023/05/15 09:24:27;;;;;;;5.27;4.77;;;18.30;99.90;;;;;;5016594;28;20211;-66
2023/05/15 09:27:03;;;;;;;6.63;4.87;;;18.30;99.90;;;;;;5018220;28;20701;-66
2023/05/15 09:29:34;;;;;;;6.77;4.43;;;18.40;99.90;;;;;;5012617;28;20455;-66
2023/05/15 09:32:05;;;;;;;5.87;4.47;;;18.60;99.90;;;;;;5013072;28;20469;-66
2023/05/15 09:34:32;;;;;;;5.27;4.77;;;18.70;99.90;;;;;;5016066;28;20516;-66
2023/05/15 09:37:00;;;;;;;5.07;4.57;;;18.60;99.90;;;;;;5018510;28;20458;-66
2023/05/15 09:39:25;;;;;;;4.70;4.30;;;18.60;99.90;;;;;;5014954;28;20462;-66
2023/05/15 09:41:52;;;;;;;4.40;3.90;;;18.70;99.90;;;;;;5019075;28;20488;-66
2023/05/15 09:44:27;;;;;;;8.20;6.30;;;18.70;99.90;;;;;;5011601;28;20204;-66
2023/05/15 09:46:53;;;;;;;6.80;5.60;;;18.80;99.90;;;;;;5017491;28;20480;-66
2023/05/15 09:49:19;;;;;;;5.87;5.23;;;18.80;99.90;;;;;;5014208;28;20455;-66
2023/05/15 09:51:49;;;;;;;5.50;5.00;;;18.80;99.90;;;;;;5016303;28;20192;-66
2023/05/15 09:54:17;;;;;;;5.70;5.03;;;18.90;99.90;;;;;;5005818;28;20492;-66
2023/05/15 09:56:44;;;;;;;5.60;4.70;;;18.90;99.90;;;;;;5016553;28;20593;-66
2023/05/15 09:59:14;;;;;;;5.20;4.70;;;18.90;99.90;;;;;;5012295;28;20874;-66
2023/05/15 10:01:43;;;;;;;5.20;4.70;;;18.80;99.90;;;;;;5018459;28;20430;-67
2023/05/15 10:04:10;;;;;;;5.43;4.90;;;18.90;99.90;;;;;;5016934;28;21027;-67
2023/05/15 10:06:44;;;;;;;4.47;4.07;;;19.00;99.90;;;;;;5024353;28;20444;-66
2023/05/15 10:09:10;;;;;;;5.00;4.50;;;19.10;99.90;;;;;;5012162;28;20453;-67
2023/05/15 10:11:44;;;;;;;7.13;4.80;;;19.30;99.90;;;;;;5013548;28;20439;-68
2023/05/15 10:14:12;;;;;;;5.37;4.87;;;19.30;99.90;;;;;;5021177;28;20451;-66
2023/05/15 10:16:39;;;;;;;4.70;4.30;;;19.30;99.90;;;;;;5043301;28;20436;-66
2023/05/15 10:19:09;;;;;;;5.17;4.67;;;19.40;99.90;;;;;;5018814;28;20482;-66
2023/05/15 10:21:37;;;;;;;5.10;4.70;;;19.50;99.90;;;;;;5016002;28;20807;-66
2023/05/15 10:24:04;;;;;;;5.40;4.90;;;19.50;99.90;;;;;;5018745;28;20465;-66
2023/05/15 10:26:38;;;;;;;6.33;4.77;;;19.60;99.90;;;;;;5016171;28;20443;-66
2023/05/15 10:29:12;;;;;;;5.10;4.70;;;19.80;99.90;;;;;;5015146;28;20447;-66
2023/05/15 10:31:41;;;;;;;5.13;4.63;;;19.90;99.90;;;;;;5007923;28;20879;-66
2023/05/15 10:34:08;;;;;;;7.20;6.50;;;20.10;99.90;;;;;;5013712;28;20439;-67
2023/05/15 10:36:35;;;;;;;6.00;4.57;;;20.40;99.90;;;;;;5011951;28;20450;-66
2023/05/15 10:39:03;;;;;;;5.50;5.00;;;20.50;99.90;;;;;;5015933;28;20466;-68
2023/05/15 10:41:29;;;;;;;4.90;4.50;;;20.60;99.90;;;;;;5018804;28;20441;-67
2023/05/15 10:43:58;;;;;;;5.47;4.97;;;20.60;99.90;;;;;;5013932;28;21030;-67
2023/05/15 10:46:24;;;;;;;6.87;5.07;;;20.70;99.90;;;;;;5016045;28;20933;-67
2023/05/15 10:48:50;;;;;;;4.90;4.43;;;20.80;99.90;;;;;;5012722;28;20494;-67
2023/05/15 10:51:26;;;;;;;5.80;5.20;;;21.10;99.90;;;;;;5017028;28;20445;-67
2023/05/15 10:53:54;;;;;;;6.27;5.60;;;21.30;99.90;;;;;;5012227;28;20471;-66
2023/05/15 10:56:20;;;;;;;4.97;4.47;;;21.40;99.90;;;;;;5019143;28;20771;-65
2023/05/15 10:58:49;;;;;;;7.90;4.83;;;21.60;99.90;;;;;;5023208;28;20500;-66
2023/05/15 11:01:30;;;;;;;6.00;5.00;;;21.60;99.90;;;;;;5012241;28;20450;-66
2023/05/15 11:04:16;;;;;;;5.10;4.60;;;21.60;99.90;;;;;;5011560;28;20496;-66
2023/05/15 11:06:43;;;;;;;5.70;4.70;;;21.80;99.90;;;;;;5011290;28;20454;-66
2023/05/15 11:09:21;;;;;;;3.47;3.17;;;21.80;99.90;;;;;;5018403;28;20793;-67
2023/05/15 11:12:08;;;;;;;3.83;3.30;;;21.60;99.90;;;;;;5028861;28;20509;-66
2023/05/15 11:14:36;;;;;;;2.93;2.63;;;21.60;99.90;;;;;;5017218;28;20427;-66
2023/05/15 11:17:04;;;;;;;2.83;2.63;;;21.40;99.90;;;;;;5021360;28;20439;-66
2023/05/15 11:19:30;;;;;;;2.77;2.57;;;20.80;99.90;;;;;;5021789;28;20564;-66
2023/05/15 11:22:00;;;;;;;2.83;2.57;;;20.30;99.90;;;;;;5017684;28;20514;-66
2023/05/15 11:24:30;;;;;;;2.90;2.53;;;20.20;99.90;;;;;;5022004;28;20208;-66
2023/05/15 11:27:00;;;;;;;3.37;2.87;;;20.10;99.90;;;;;;5020884;28;20415;-66
2023/05/15 11:29:26;;;;;;;2.97;2.67;;;19.80;99.90;;;;;;5025128;28;20526;-66
2023/05/15 11:31:51;;;;;;;3.30;3.00;;;19.80;99.90;;;;;;5016404;28;21031;-66
2023/05/15 11:34:34;;;;;;;3.10;2.80;;;19.80;99.90;;;;;;5017548;28;20216;-66
2023/05/15 11:37:00;;;;;;;2.80;2.60;;;19.80;99.90;;;;;;5024158;28;20693;-66
2023/05/15 11:39:27;;;;;;;12.30;11.20;;;19.70;99.90;;;;;;5021018;28;20828;-66
2023/05/15 11:41:53;;;;;;;5.40;4.87;;;19.70;99.90;;;;;;5027768;28;20443;-66
2023/05/15 11:44:23;;;;;;;3.33;2.80;;;19.80;99.90;;;;;;5021384;28;20510;-66
2023/05/15 11:46:52;;;;;;;3.83;3.37;;;19.60;99.90;;;;;;5028747;28;20766;-66
2023/05/15 11:49:21;;;;;;;3.20;2.90;;;19.60;99.90;;;;;;5010457;28;20549;-66
2023/05/15 11:51:47;;;;;;;3.53;3.23;;;19.50;99.90;;;;;;5013808;28;20526;-66
2023/05/15 11:54:13;;;;;;;4.40;3.50;;;19.40;99.90;;;;;;5016020;28;21208;-66
2023/05/15 11:56:43;;;;;;;3.60;3.30;;;19.50;99.90;;;;;;5019030;28;20947;-66
2023/05/15 11:59:13;;;;;;;4.00;3.60;;;19.40;99.90;;;;;;5018151;28;20488;-66
2023/05/15 12:01:46;;;;;;;4.00;3.43;;;19.40;99.90;;;;;;5022894;28;20652;-66
2023/05/15 12:04:15;;;;;;;3.20;2.90;;;19.40;99.90;;;;;;5016433;28;20455;-66
2023/05/15 12:06:43;;;;;;;4.03;3.30;;;19.50;99.90;;;;;;5017289;28;20439;-67
2023/05/15 12:09:18;;;;;;;4.00;3.63;;;19.60;99.90;;;;;;5020961;28;20490;-66
2023/05/15 12:11:51;;;;;;;3.73;3.43;;;19.60;99.90;;;;;;5018924;28;20537;-66
2023/05/15 12:14:24;;;;;;;4.00;3.60;;;19.60;99.90;;;;;;5016459;28;20439;-67
2023/05/15 12:16:51;;;;;;;4.23;3.83;;;19.70;99.90;;;;;;5046290;28;20431;-66
2023/05/15 12:19:16;;;;;;;4.93;3.57;;;19.80;99.90;;;;;;5015480;28;20498;-67
2023/05/15 12:21:45;;;;;;;3.90;3.60;;;20.00;99.90;;;;;;5020741;28;20483;-66
2023/05/15 12:24:11;;;;;;;3.60;3.30;;;20.80;99.90;;;;;;5019676;28;20200;-66
2023/05/15 12:26:38;;;;;;;4.47;3.80;;;22.50;99.90;;;;;;5018390;28;20448;-66
2023/05/15 12:29:04;;;;;;;4.17;3.77;;;24.50;99.90;;;;;;5022401;28;20447;-67
2023/05/15 12:31:30;;;;;;;3.90;3.50;;;26.30;99.90;;;;;;5022891;28;20932;-67
2023/05/15 12:33:56;;;;;;;3.57;3.27;;;27.60;99.40;;;;;;5046151;28;20452;-67
2023/05/15 12:36:22;;;;;;;3.10;2.80;;;28.70;96.30;;;;;;5014592;28;20435;-67
2023/05/15 12:38:48;;;;;;;3.90;2.97;;;30.00;91.20;;;;;;5013872;28;20232;-68
2023/05/15 12:41:13;;;;;;;3.60;3.30;;;30.20;76.30;;;;;;5020970;28;20708;-67
2023/05/15 12:43:40;;;;;;;3.10;2.90;;;29.90;71.50;;;;;;5024283;28;21442;-67
2023/05/15 12:46:05;;;;;;;3.43;3.13;;;29.30;66.30;;;;;;5019777;28;20223;-67